TimeEDT,TemperatureF,Dew PointF,Humidity,Sea Level PressureIn,VisibilityMPH,Wind Direction,Wind SpeedMPH,Gust SpeedMPH,PrecipitationIn,Events,Conditions,WindDirDegrees,DateUTC
12:53 AM,51.1,35.1,54,29.61,10.0,Calm,Calm,-,N/A,,Clear,0,2014-03-12 04:53:00
1:53 AM,51.1,36.0,56,29.60,10.0,NW,3.5,-,N/A,,Clear,320,2014-03-12 05:53:00
2:53 AM,46.0,36.0,68,29.57,10.0,NNW,4.6,-,N/A,,Clear,330,2014-03-12 06:53:00
3:53 AM,46.0,36.0,68,29.53,10.0,SSE,3.5,-,N/A,,Clear,150,2014-03-12 07:53:00
4:53 AM,44.1,36.0,73,29.51,10.0,Calm,Calm,-,N/A,,Clear,0,2014-03-12 08:53:00
5:53 AM,46.9,36.0,66,29.49,10.0,Calm,Calm,-,N/A,,Clear,0,2014-03-12 09:53:00
6:53 AM,46.9,37.0,68,29.47,10.0,West,3.5,-,N/A,,Partly Cloudy,260,2014-03-12 10:53:00
7:53 AM,46.9,36.0,66,29.46,10.0,SSW,5.8,-,N/A,,Clear,210,2014-03-12 11:53:00
8:53 AM,50.0,37.9,63,29.43,10.0,SSE,3.5,-,N/A,,Mostly Cloudy,160,2014-03-12 12:53:00
9:53 AM,53.1,37.9,57,29.38,10.0,South,5.8,-,N/A,,Overcast,190,2014-03-12 13:53:00
10:53 AM,59.0,37.9,46,29.35,10.0,South,21.9,31.1,N/A,,Overcast,190,2014-03-12 14:53:00
11:53 AM,62.1,48.0,60,29.31,10.0,South,24.2,29.9,N/A,,Overcast,190,2014-03-12 15:53:00
12:18 PM,61.0,51.1,70,29.32,10.0,SSW,19.6,33.4,N/A,,Overcast,210,2014-03-12 16:18:00
12:53 PM,60.1,54.0,80,29.28,10.0,South,21.9,26.5,0.00,Rain,Light Rain,190,2014-03-12 16:53:00
1:53 PM,60.1,55.0,83,29.22,10.0,South,17.3,27.6,0.00,,Overcast,190,2014-03-12 17:53:00
2:33 PM,60.1,55.0,83,29.19,10.0,South,17.3,28.8,N/A,,Overcast,190,2014-03-12 18:33:00
2:53 PM,61.0,55.0,81,29.17,10.0,SW,16.1,28.8,N/A,,Overcast,220,2014-03-12 18:53:00
3:01 PM,61.0,55.0,81,29.18,10.0,SSW,19.6,29.9,N/A,,Overcast,200,2014-03-12 19:01:00
3:53 PM,64.0,57.0,78,29.12,10.0,SW,17.3,28.8,N/A,,Mostly Cloudy,220,2014-03-12 19:53:00
4:02 PM,64.9,57.0,75,29.12,10.0,South,23.0,29.9,N/A,,Mostly Cloudy,190,2014-03-12 20:02:00
4:53 PM,64.0,55.9,75,29.09,10.0,SSW,17.3,26.5,N/A,,Overcast,200,2014-03-12 20:53:00
5:53 PM,62.1,57.9,86,29.11,4.0,Variable,3.5,-,0.06,,Mostly Cloudy,0,2014-03-12 21:53:00
6:53 PM,57.0,39.0,51,29.20,10.0,WNW,19.6,39.1,N/A,,Partly Cloudy,290,2014-03-12 22:53:00
7:53 PM,50.0,28.9,44,29.31,10.0,WNW,13.8,32.2,N/A,,Clear,300,2014-03-12 23:53:00
8:53 PM,45.0,25.0,46,29.38,10.0,WNW,10.4,28.8,N/A,,Mostly Cloudy,290,2014-03-13 00:53:00
9:53 PM,39.9,21.9,49,29.44,10.0,NW,15.0,32.2,N/A,,Clear,310,2014-03-13 01:53:00
10:53 PM,37.0,19.0,48,29.52,10.0,NNW,9.2,23.0,N/A,,Mostly Cloudy,330,2014-03-13 02:53:00
11:53 PM,36.0,17.1,46,29.56,10.0,NNW,10.4,18.4,N/A,,Partly Cloudy,340,2014-03-13 03:53:00